Time;durP1;ratioP1;P1;durP2;ratioP2;P2;SDS_P1;SDS_P2;PMS_P1;PMS_P2;Temp;Humidity;BMP_temperature;BMP_pressure;BME280_temperature;BME280_humidity;BME280_pressure;Samples;Min_cycle;Max_cycle;Signal;HPM_P1;HPM_P2
2022/06/11 00:02:13;;;;;;;;;;;;;;;;;;5105741;28;19947;-58
2022/06/11 00:04:42;;;;;;;;;;;;;;;;;;5127014;28;19912;-58
2022/06/11 00:07:14;;;;;;;;;;;;;;;;;;5125725;28;19912;-58
2022/06/11 00:12:26;;;;;;;;;;;;;;;;;;5126521;28;19914;-58
2022/06/11 00:17:42;;;;;;;;;;;;;;;;;;5084027;28;20092;-58
2022/06/11 00:20:12;;;;;;;;;;;;;;;;;;5084103;28;19952;-57
2022/06/11 00:28:12;;;;;;;;;;;;;;;;;;5082886;28;19927;-58
2022/06/11 00:33:36;;;;;;;;;;;;;;;;;;5083803;28;19924;-58
2022/06/11 00:36:16;;;;;;;;;;;;;;;;;;5083137;28;20042;-58
2022/06/11 00:41:30;;;;;;;;;;;;;;;;;;5083536;28;19939;-58
2022/06/11 00:43:58;;;;;;;;;;;;;;;;;;5083394;28;19916;-58
2022/06/11 00:46:35;;;;;;;;;;;;;;;;;;5083499;28;20366;-58
2022/06/11 00:49:04;;;;;;;;;;;;;;;;;;5082134;28;20348;-58
2022/06/11 00:54:15;;;;;;;;;;;;;;;;;;5105635;28;19954;-58
2022/06/11 00:56:44;;;;;;;;;;;;;;;;;;5105576;28;19908;-58
2022/06/11 00:59:17;;;;;;;;;;;;;;;;;;5107035;28;19916;-58
2022/06/11 01:01:50;;;;;;;;;;;;;;;;;;5106096;28;19908;-58
2022/06/11 01:04:17;;;;;;;;;;;;;;;;;;5103558;28;19951;-56
2022/06/11 01:15:07;;;;;;;;;;;;;;;;;;5091257;28;19935;-58
2022/06/11 01:20:26;;;;;;;;;;;;;;;;;;5099205;28;20316;-58
2022/06/11 01:22:54;;;;;;;;;;;;;;;;;;5103075;28;19908;-58
2022/06/11 01:31:29;;;;;;;;;;;;;;;;;;5101860;28;19960;-57
2022/06/11 01:34:00;;;;;;;;;;;;;;;;;;5105562;28;19915;-58
2022/06/11 01:36:29;;;;;;;;;;;;;;;;;;5104187;28;19905;-57
2022/06/11 01:39:16;;;;;;;;;;;;;;;;;;5084664;28;19908;-58
2022/06/11 01:41:51;;;;;;;;;;;;;;;;;;5104959;28;19932;-58
2022/06/11 01:44:32;;;;;;;;;;;;;;;;;;5083161;28;19919;-58
2022/06/11 01:47:03;;;;;;;;;;;;;;;;;;5104552;28;20346;-58
2022/06/11 01:49:47;;;;;;;;;;;;;;;;;;5086642;28;19908;-58
2022/06/11 01:55:08;;;;;;;;;;;;;;;;;;5104536;28;19908;-57
2022/06/11 02:00:38;;;;;;;;;;;;;;;;;;5023227;28;19909;-58
2022/06/11 02:03:13;;;;;;;;;;;;;;;;;;5022770;28;20024;-59
2022/06/11 02:05:52;;;;;;;;;;;;;;;;;;5022596;28;19910;-58
2022/06/11 02:08:27;;;;;;;;;;;;;;;;;;5023406;28;19944;-58
2022/06/11 02:10:53;;;;;;;;;;;;;;;;;;5022276;28;19909;-57
2022/06/11 02:13:34;;;;;;;;;;;;;;;;;;5022970;28;19910;-58
2022/06/11 02:22:12;;;;;;;;;;;;;;;;;;4963637;29;19910;-58
2022/06/11 02:24:38;;;;;;;;;;;;;;;;;;4964075;29;19946;-57
2022/06/11 02:27:12;;;;;;;;;;;;;;;;;;4990344;28;19917;-58
2022/06/11 02:29:47;;;;;;;;;;;;;;;;;;5040146;28;19925;-57
2022/06/11 02:32:28;;;;;;;;;;;;;;;;;;5037033;28;19909;-58
2022/06/11 02:34:54;;;;;;;;;;;;;;;;;;5082192;28;19958;-58
2022/06/11 02:37:30;;;;;;;;;;;;;;;;;;5104291;28;19908;-58
2022/06/11 02:39:59;;;;;;;;;;;;;;;;;;5085490;28;19915;-58
2022/06/11 02:42:40;;;;;;;;;;;;;;;;;;5105206;28;19909;-58
2022/06/11 02:45:10;;;;;;;;;;;;;;;;;;5104311;28;19908;-58
2022/06/11 02:47:39;;;;;;;;;;;;;;;;;;5104566;28;19923;-58
2022/06/11 02:50:09;;;;;;;;;;;;;;;;;;5108822;28;19916;-58
2022/06/11 02:52:44;;;;;;;;;;;;;;;;;;5108618;28;19908;-58
2022/06/11 03:00:51;;;;;;;;;;;;;;;;;;5006509;28;19910;-57
2022/06/11 03:03:27;;;;;;;;;;;;;;;;;;5096903;28;19958;-57
2022/06/11 03:05:56;;;;;;;;;;;;;;;;;;5056454;28;19908;-58
2022/06/11 03:08:22;;;;;;;;;;;;;;;;;;5108411;28;19909;-58
2022/06/11 03:10:54;;;;;;;;;;;;;;;;;;5089221;28;19912;-58
2022/06/11 03:13:36;;;;;;;;;;;;;;;;;;5108529;28;20537;-58
2022/06/11 03:16:02;;;;;;;;;;;;;;;;;;5108402;28;20289;-58
2022/06/11 03:18:37;;;;;;;;;;;;;;;;;;5108315;28;20314;-58
2022/06/11 03:23:49;;;;;;;;;;;;;;;;;;5108412;28;19919;-58
2022/06/11 03:26:37;;;;;;;;;;;;;;;;;;;;;
2022/06/11 03:32:01;;;;;;;;;;;;;;;;;;5107973;28;19960;-58
2022/06/11 03:34:27;;;;;;;;;;;;;;;;;;5117868;28;19919;-58
2022/06/11 03:36:53;;;;;;;;;;;;;;;;;;5118388;28;19908;-57
2022/06/11 03:39:19;;;;;;;;;;;;;;;;;;5094629;28;19908;-57
2022/06/11 03:42:56;;;;;;;;;;;;;;;;;;;;;
2022/06/11 03:44:40;;;;;;;;;;;;;;;;;;5094670;28;19911;-58
2022/06/11 03:47:06;;;;;;;;;;;;;;;;;;5117226;28;20009;-58
2022/06/11 03:49:48;;;;;;;;;;;;;;;;;;5118746;28;20241;-57
2022/06/11 03:52:13;;;;;;;;;;;;;;;;;;5119137;28;19908;-58
2022/06/11 03:54:55;;;;;;;;;;;;;;;;;;5118099;28;19916;-58
2022/06/11 03:57:27;;;;;;;;;;;;;;;;;;5118947;28;20052;-57
2022/06/11 04:03:11;;;;;;;;;;;;;;;;;;5035354;28;20003;-57
2022/06/11 04:06:02;;;;;;;;;;;;;;;;;;5035678;28;19968;-58
2022/06/11 04:11:12;;;;;;;;;;;;;;;;;;5034992;28;19916;-57
2022/06/11 04:13:41;;;;;;;;;;;;;;;;;;5034896;28;19910;-57
2022/06/11 04:19:07;;;;;;;;;;;;;;;;;;5035023;28;20000;-58
2022/06/11 04:21:33;;;;;;;;;;;;;;;;;;5101299;28;20353;-58
2022/06/11 04:24:01;;;;;;;;;;;;;;;;;;5082028;28;19929;-58
2022/06/11 04:26:35;;;;;;;;;;;;;;;;;;5118218;28;19966;-58
2022/06/11 04:29:13;;;;;;;;;;;;;;;;;;5117300;28;19980;-58
2022/06/11 04:34:23;;;;;;;;;;;;;;;;;;5117976;28;19968;-57
2022/06/11 04:37:01;;;;;;;;;;;;;;;;;;5081619;28;19907;-58
2022/06/11 04:39:26;;;;;;;;;;;;;;;;;;5117151;28;19919;-58
2022/06/11 04:42:11;;;;;;;;;;;;;;;;;;5117094;28;19911;-57
2022/06/11 04:47:44;;;;;;;;;;;;;;;;;;5034711;28;19917;-57
2022/06/11 04:50:29;;;;;;;;;;;;;;;;;;;;;
2022/06/11 04:55:43;;;;;;;;;;;;;;;;;;5116434;28;19915;-57
2022/06/11 04:58:15;;;;;;;;;;;;;;;;;;5117091;28;19914;-58
2022/06/11 05:00:42;;;;;;;;;;;;;;;;;;5098179;28;20399;-58
2022/06/11 05:06:09;;;;;;;;;;;;;;;;;;5073549;28;19959;-58
2022/06/11 05:08:41;;;;;;;;;;;;;;;;;;5073220;28;19974;-57
2022/06/11 05:11:16;;;;;;;;;;;;;;;;;;5072493;28;19919;-58
2022/06/11 05:14:15;;;;;;;;;;;;;;;;;;5073878;28;19947;-57
2022/06/11 05:16:34;;;;;;;;;;;;;;;;;;5070827;28;19908;-58
2022/06/11 05:19:12;;;;;;;;;;;;;;;;;;5073172;28;19909;-58
2022/06/11 05:24:25;;;;;;;;;;;;;;;;;;5073291;28;19916;-57
2022/06/11 05:26:54;;;;;;;;;;;;;;;;;;5072843;28;20409;-57
2022/06/11 05:29:56;;;;;;;;;;;;;;;;;;5072631;28;20007;-57
2022/06/11 05:32:18;;;;;;;;;;;;;;;;;;5071096;28;19908;-58
2022/06/11 05:35:02;;;;;;;;;;;;;;;;;;5072892;28;20440;-58
2022/06/11 05:37:31;;;;;;;;;;;;;;;;;;5073374;28;20322;-55
2022/06/11 05:42:50;;;;;;;;;;;;;;;;;;5088068;28;19908;-57
2022/06/11 05:45:32;;;;;;;;;;;;;;;;;;;;;
2022/06/11 05:50:47;;;;;;;;;;;;;;;;;;5089863;28;19908;-55
2022/06/11 05:53:57;;;;;;;;;;;;;;;;;;;;;
2022/06/11 05:59:01;;;;;;;;;;;;;;;;;;5094781;28;20350;-58
2022/06/11 06:01:40;;;;;;;;;;;;;;;;;;5095663;28;19919;-58
2022/06/11 06:04:16;;;;;;;;;;;;;;;;;;;;;
2022/06/11 06:07:02;;;;;;;;;;;;;;;;;;;;;
2022/06/11 06:09:52;;;;;;;;;;;;;;;;;;;;;
2022/06/11 06:12:31;;;;;;;;;;;;;;;;;;5090768;28;20315;-58
2022/06/11 06:14:57;;;;;;;;;;;;;;;;;;5096149;28;20346;-58
2022/06/11 06:17:29;;;;;;;;;;;;;;;;;;5094757;28;19908;-58
2022/06/11 06:19:55;;;;;;;;;;;;;;;;;;5095275;28;19912;-58
2022/06/11 06:22:27;;;;;;;;;;;;;;;;;;5094739;28;19908;-58
2022/06/11 06:27:46;;;;;;;;;;;;;;;;;;5095314;28;19997;-58
2022/06/11 06:31:13;;;;;;;;;;;;;;;;;;5091393;28;20050;-58
2022/06/11 06:36:05;;;;;;;;;;;;;;;;;;5092958;28;19914;-58
2022/06/11 06:38:51;;;;;;;;;;;;;;;;;;5096049;28;20278;-58
2022/06/11 06:41:17;;;;;;;;;;;;;;;;;;5095292;28;19912;-58
2022/06/11 06:43:49;;;;;;;;;;;;;;;;;;5095999;28;19912;-58
2022/06/11 06:46:15;;;;;;;;;;;;;;;;;;5094793;28;19916;-58
2022/06/11 06:48:44;;;;;;;;;;;;;;;;;;5095115;28;19915;-58
2022/06/11 06:51:25;;;;;;;;;;;;;;;;;;5092886;28;19909;-58
2022/06/11 06:53:57;;;;;;;;;;;;;;;;;;5073108;28;19916;-58
2022/06/11 06:56:33;;;;;;;;;;;;;;;;;;5072350;28;19908;-59
2022/06/11 06:59:17;;;;;;;;;;;;;;;;;;5072491;28;19909;-59
2022/06/11 07:01:50;;;;;;;;;;;;;;;;;;5072953;28;19979;-59
2022/06/11 07:04:18;;;;;;;;;;;;;;;;;;5072880;28;20443;-58
2022/06/11 07:06:44;;;;;;;;;;;;;;;;;;5072638;28;19917;-58
2022/06/11 07:09:16;;;;;;;;;;;;;;;;;;5071606;28;19915;-59
2022/06/11 07:14:42;;;;;;;;;;;;;;;;;;5075518;28;20503;-58
2022/06/11 07:17:15;;;;;;;;;;;;;;;;;;5073700;28;20001;-59
2022/06/11 07:19:58;;;;;;;;;;;;;;;;;;5072769;28;19909;-56
2022/06/11 07:22:26;;;;;;;;;;;;;;;;;;5072195;28;19909;-58
2022/06/11 07:27:49;;;;;;;;;;;;;;;;;;5084302;28;20032;-59
2022/06/11 07:33:22;;;;;;;;;;;;;;;;;;5030895;28;19949;-59
2022/06/11 07:38:50;;;;;;;;;;;;;;;;;;5017985;28;19913;-59
2022/06/11 07:41:19;;;;;;;;;;;;;;;;;;5016155;28;20421;-59
2022/06/11 07:46:32;;;;;;;;;;;;;;;;;;5035077;28;19939;-59
2022/06/11 07:49:16;;;;;;;;;;;;;;;;;;5032349;28;19909;-59
2022/06/11 07:51:43;;;;;;;;;;;;;;;;;;5035558;28;19967;-60
2022/06/11 07:54:14;;;;;;;;;;;;;;;;;;5046685;28;19960;-59
2022/06/11 07:56:49;;;;;;;;;;;;;;;;;;5099538;28;19908;-59
2022/06/11 07:59:18;;;;;;;;;;;;;;;;;;5099422;28;20341;-60
2022/06/11 08:01:54;;;;;;;;;;;;;;;;;;5118088;28;19908;-60
2022/06/11 08:04:32;;;;;;;;;;;;;;;;;;5118017;28;19914;-60
2022/06/11 08:07:15;;;;;;;;;;;;;;;;;;5118595;28;20338;-58
2022/06/11 08:09:46;;;;;;;;;;;;;;;;;;5094743;28;20268;-60
2022/06/11 08:12:20;;;;;;;;;;;;;;;;;;5118002;28;19908;-60
2022/06/11 08:14:48;;;;;;;;;;;;;;;;;;5118314;28;19915;-60
2022/06/11 08:17:57;;;;;;;;;;;;;;;;;;5100418;28;19908;-60
2022/06/11 08:22:49;;;;;;;;;;;;;;;;;;5117455;28;19914;-60
2022/06/11 08:25:15;;;;;;;;;;;;;;;;;;5117626;28;19908;-60
2022/06/11 08:27:41;;;;;;;;;;;;;;;;;;5117237;28;20003;-60
2022/06/11 08:32:51;;;;;;;;;;;;;;;;;;5117368;28;19953;-60
2022/06/11 08:35:23;;;;;;;;;;;;;;;;;;5118000;28;20277;-60
2022/06/11 08:38:07;;;;;;;;;;;;;;;;;;;;;
2022/06/11 08:40:46;;;;;;;;;;;;;;;;;;;;;
2022/06/11 08:46:04;;;;;;;;;;;;;;;;;;5034181;28;19992;-60
2022/06/11 08:48:36;;;;;;;;;;;;;;;;;;5034542;28;19917;-60
2022/06/11 08:51:14;;;;;;;;;;;;;;;;;;5089961;28;19907;-60
2022/06/11 08:53:40;;;;;;;;;;;;;;;;;;5115175;28;19915;-60
2022/06/11 08:56:06;;;;;;;;;;;;;;;;;;5117545;28;19912;-60
2022/06/11 08:58:32;;;;;;;;;;;;;;;;;;5117081;28;19908;-60
2022/06/11 09:01:11;;;;;;;;;;;;;;;;;;;;;
2022/06/11 09:03:46;;;;;;;;;;;;;;;;;;5117399;28;19908;-60
2022/06/11 09:06:12;;;;;;;;;;;;;;;;;;5116728;28;19908;-60
2022/06/11 09:11:38;;;;;;;;;;;;;;;;;;5116934;28;19915;-60
2022/06/11 09:14:20;;;;;;;;;;;;;;;;;;;;;
2022/06/11 09:16:54;;;;;;;;;;;;;;;;;;5098794;28;20274;-60
2022/06/11 09:22:23;;;;;;;;;;;;;;;;;;5034117;28;19909;-60
2022/06/11 09:24:52;;;;;;;;;;;;;;;;;;5101459;28;20345;-60
2022/06/11 09:30:12;;;;;;;;;;;;;;;;;;5120196;28;19931;-60
2022/06/11 09:32:41;;;;;;;;;;;;;;;;;;5095999;28;19921;-60
2022/06/11 09:35:24;;;;;;;;;;;;;;;;;;5095258;28;19912;-60
2022/06/11 09:37:53;;;;;;;;;;;;;;;;;;5096105;28;19908;-60
2022/06/11 09:40:30;;;;;;;;;;;;;;;;;;5032035;28;19913;-60
2022/06/11 09:45:45;;;;;;;;;;;;;;;;;;5022991;28;19909;-60
2022/06/11 09:51:09;;;;;;;;;;;;;;;;;;5030857;28;20088;-60
2022/06/11 09:56:39;;;;;;;;;;;;;;;;;;5012065;28;19909;-60
2022/06/11 10:00:05;;;;;;;;;;;;;;;;;;5032139;28;20434;-60
2022/06/11 10:02:06;;;;;;;;;;;;;;;;;;5023935;28;19909;-58
2022/06/11 10:04:38;;;;;;;;;;;;;;;;;;5033614;28;19910;-58
2022/06/11 10:07:06;;;;;;;;;;;;;;;;;;5031306;28;20391;-58
2022/06/11 10:09:32;;;;;;;;;;;;;;;;;;5033221;28;19913;-58
2022/06/11 10:15:12;;;;;;;;;;;;;;;;;;;;;
2022/06/11 10:18:00;;;;;;;;;;;;;;;;;;5094095;28;19931;-58
2022/06/11 10:20:26;;;;;;;;;;;;;;;;;;5094488;28;19958;-58
2022/06/11 10:23:04;;;;;;;;;;;;;;;;;;5094891;28;19998;-58
2022/06/11 10:31:02;;;;;;;;;;;;;;;;;;5031868;28;20020;-58
2022/06/11 10:33:37;;;;;;;;;;;;;;;;;;5032175;28;20379;-58
2022/06/11 10:38:58;;;;;;;;;;;;;;;;;;5081562;28;19962;-58
2022/06/11 10:41:27;;;;;;;;;;;;;;;;;;5094618;28;20458;-58
2022/06/11 10:43:56;;;;;;;;;;;;;;;;;;5095337;28;19912;-58
2022/06/11 10:46:26;;;;;;;;;;;;;;;;;;5076647;28;19924;-58
2022/06/11 10:52:04;;;;;;;;;;;;;;;;;;5071017;28;19912;-58
2022/06/11 10:54:40;;;;;;;;;;;;;;;;;;5091360;28;20249;-58
2022/06/11 10:57:25;;;;;;;;;;;;;;;;;;;;;
2022/06/11 11:00:02;;;;;;;;;;;;;;;;;;;;;
2022/06/11 11:02:38;;;;;;;;;;;;;;;;;;5094583;28;19995;-58
2022/06/11 11:05:11;;;;;;;;;;;;;;;;;;5077172;28;20357;-59
2022/06/11 11:07:47;;;;;;;;;;;;;;;;;;;;;
2022/06/11 11:10:13;;;;;;;;;;;;;;;;;;5091354;28;20006;-59
2022/06/11 11:12:49;;;;;;;;;;;;;;;;;;5098879;28;19954;-59
2022/06/11 11:20:47;;;;;;;;;;;;;;;;;;5098921;28;19969;-59
2022/06/11 11:23:16;;;;;;;;;;;;;;;;;;5099439;28;19973;-59
2022/06/11 11:28:31;;;;;;;;;;;;;;;;;;5086788;28;19916;-59
2022/06/11 11:31:00;;;;;;;;;;;;;;;;;;5098772;28;19908;-59
2022/06/11 11:33:29;;;;;;;;;;;;;;;;;;5119419;28;19948;-59
2022/06/11 11:38:47;;;;;;;;;;;;;;;;;;5118353;28;19912;-59
2022/06/11 11:41:13;;;;;;;;;;;;;;;;;;5099486;28;20368;-59
2022/06/11 11:46:46;;;;;;;;;;;;;;;;;;5081411;28;19964;-59
2022/06/11 11:49:15;;;;;;;;;;;;;;;;;;5097811;28;19915;-59
2022/06/11 11:51:45;;;;;;;;;;;;;;;;;;5098025;28;20405;-59
2022/06/11 11:54:21;;;;;;;;;;;;;;;;;;5118376;28;19990;-59
2022/06/11 11:56:50;;;;;;;;;;;;;;;;;;5117508;28;20348;-59
2022/06/11 12:02:05;;;;;;;;;;;;;;;;;;5106984;28;20313;-59
2022/06/11 12:04:40;;;;;;;;;;;;;;;;;;5116915;28;19907;-59
2022/06/11 12:07:07;;;;;;;;;;;;;;;;;;5093251;28;19916;-59
2022/06/11 12:09:36;;;;;;;;;;;;;;;;;;5095679;28;19907;-59
2022/06/11 12:15:09;;;;;;;;;;;;;;;;;;5071457;28;19951;-59
2022/06/11 12:17:41;;;;;;;;;;;;;;;;;;5096187;28;19977;-59
2022/06/11 12:20:10;;;;;;;;;;;;;;;;;;5099266;28;19945;-59
2022/06/11 12:22:51;;;;;;;;;;;;;;;;;;5099027;28;19908;-59
2022/06/11 12:25:20;;;;;;;;;;;;;;;;;;5117273;28;19953;-59
2022/06/11 12:27:55;;;;;;;;;;;;;;;;;;5098014;28;20490;-59
2022/06/11 12:30:42;;;;;;;;;;;;;;;;;;5094909;28;19908;-59
2022/06/11 12:33:11;;;;;;;;;;;;;;;;;;5115535;28;20280;-59
2022/06/11 12:44:17;;;;;;;;;;;;;;;;;;5116990;28;20003;-59
2022/06/11 12:46:45;;;;;;;;;;;;;;;;;;5117697;28;20401;-59
2022/06/11 12:52:00;;;;;;;;;;;;;;;;;;5106346;28;19908;-59
2022/06/11 12:54:25;;;;;;;;;;;;;;;;;;5116814;28;19908;-59
2022/06/11 12:57:00;;;;;;;;;;;;;;;;;;5117600;28;20005;-59
2022/06/11 12:59:29;;;;;;;;;;;;;;;;;;5098402;28;19935;-59
2022/06/11 13:01:58;;;;;;;;;;;;;;;;;;5107152;28;20314;-59
2022/06/11 13:04:27;;;;;;;;;;;;;;;;;;5117277;28;20337;-59
2022/06/11 13:06:56;;;;;;;;;;;;;;;;;;5073493;28;19916;-59
2022/06/11 13:09:41;;;;;;;;;;;;;;;;;;;;;
2022/06/11 13:12:10;;;;;;;;;;;;;;;;;;5074028;28;19909;-59
2022/06/11 13:14:44;;;;;;;;;;;;;;;;;;5074598;28;19912;-59
2022/06/11 13:17:13;;;;;;;;;;;;;;;;;;5057064;28;19916;-59
2022/06/11 13:19:47;;;;;;;;;;;;;;;;;;5056564;28;19916;-59
2022/06/11 13:22:33;;;;;;;;;;;;;;;;;;5057673;28;20317;-59
2022/06/11 13:25:16;;;;;;;;;;;;;;;;;;5056304;28;19909;-59
2022/06/11 13:27:58;;;;;;;;;;;;;;;;;;5072462;28;19926;-59
2022/06/11 13:33:15;;;;;;;;;;;;;;;;;;5064614;28;19920;-59
2022/06/11 13:35:48;;;;;;;;;;;;;;;;;;5073315;28;19915;-59
2022/06/11 13:38:20;;;;;;;;;;;;;;;;;;5082718;28;19915;-59
2022/06/11 13:40:50;;;;;;;;;;;;;;;;;;5115705;28;20383;-59
2022/06/11 13:46:11;;;;;;;;;;;;;;;;;;5032631;28;19917;-59
2022/06/11 13:48:47;;;;;;;;;;;;;;;;;;5032286;28;19916;-59
2022/06/11 13:51:15;;;;;;;;;;;;;;;;;;5092444;28;19908;-59
2022/06/11 13:56:47;;;;;;;;;;;;;;;;;;5115095;28;19983;-59
2022/06/11 13:59:31;;;;;;;;;;;;;;;;;;5114172;28;19988;-59
2022/06/11 14:02:23;;;;;;;;;;;;;;;;;;5115374;28;20368;-59
2022/06/11 14:04:43;;;;;;;;;;;;;;;;;;5111769;28;20005;-59
2022/06/11 14:07:15;;;;;;;;;;;;;;;;;;5114866;28;19920;-59
2022/06/11 14:12:33;;;;;;;;;;;;;;;;;;5114982;28;19914;-59
2022/06/11 14:15:17;;;;;;;;;;;;;;;;;;5115237;28;19984;-59
2022/06/11 14:18:01;;;;;;;;;;;;;;;;;;5114803;28;19908;-59
2022/06/11 14:20:29;;;;;;;;;;;;;;;;;;5115542;28;19919;-59
2022/06/11 14:28:49;;;;;;;;;;;;;;;;;;5032038;28;19983;-59
2022/06/11 14:31:15;;;;;;;;;;;;;;;;;;5065510;28;19914;-59
2022/06/11 14:33:41;;;;;;;;;;;;;;;;;;5094536;28;20026;-59
2022/06/11 14:36:19;;;;;;;;;;;;;;;;;;5114675;28;19908;-59
2022/06/11 14:38:51;;;;;;;;;;;;;;;;;;5095579;28;19908;-59
2022/06/11 14:41:31;;;;;;;;;;;;;;;;;;5096495;28;20410;-59
2022/06/11 14:44:05;;;;;;;;;;;;;;;;;;5111612;28;20353;-59
2022/06/11 14:46:55;;;;;;;;;;;;;;;;;;;;;
2022/06/11 14:49:24;;;;;;;;;;;;;;;;;;5116955;28;20343;-59
2022/06/11 14:51:53;;;;;;;;;;;;;;;;;;5119238;28;20345;-59
2022/06/11 14:54:22;;;;;;;;;;;;;;;;;;5119398;28;19907;-59
2022/06/11 14:59:37;;;;;;;;;;;;;;;;;;5108272;28;19962;-59
2022/06/11 15:02:09;;;;;;;;;;;;;;;;;;5118987;28;20368;-59
2022/06/11 15:04:41;;;;;;;;;;;;;;;;;;5119192;28;19908;-59
2022/06/11 15:07:10;;;;;;;;;;;;;;;;;;5119376;28;20329;-59
2022/06/11 15:09:55;;;;;;;;;;;;;;;;;;;;;
2022/06/11 15:12:24;;;;;;;;;;;;;;;;;;5071245;28;19914;-59
2022/06/11 15:14:53;;;;;;;;;;;;;;;;;;5118918;28;19908;-59
2022/06/11 15:17:28;;;;;;;;;;;;;;;;;;5099499;28;19907;-59
2022/06/11 15:19:56;;;;;;;;;;;;;;;;;;5119135;28;19914;-59
2022/06/11 15:22:39;;;;;;;;;;;;;;;;;;5100573;28;19908;-59
2022/06/11 15:25:08;;;;;;;;;;;;;;;;;;5119124;28;19908;-59
2022/06/11 15:27:56;;;;;;;;;;;;;;;;;;;;;
2022/06/11 15:30:26;;;;;;;;;;;;;;;;;;5113167;28;19975;-59
2022/06/11 15:32:52;;;;;;;;;;;;;;;;;;5118556;28;19920;-59
2022/06/11 15:35:31;;;;;;;;;;;;;;;;;;5118256;28;19908;-59
2022/06/11 15:38:00;;;;;;;;;;;;;;;;;;5119571;28;19965;-60
2022/06/11 15:40:28;;;;;;;;;;;;;;;;;;5099941;28;20329;-59
2022/06/11 15:45:56;;;;;;;;;;;;;;;;;;;;;
2022/06/11 15:48:28;;;;;;;;;;;;;;;;;;5116940;28;20327;-59
2022/06/11 15:50:54;;;;;;;;;;;;;;;;;;5099026;28;20388;-59
2022/06/11 15:55:11;;;;;;;;;;;;;;;;;;5099335;28;20361;-59
2022/06/11 15:56:12;;;;;;;;;;;;;;;;;;5115574;28;19912;-59
2022/06/11 15:58:46;;;;;;;;;;;;;;;;;;5099047;28;20368;-59
2022/06/11 16:01:27;;;;;;;;;;;;;;;;;;5117425;28;19931;-59
2022/06/11 16:03:59;;;;;;;;;;;;;;;;;;5100143;28;20439;-59
2022/06/11 16:06:32;;;;;;;;;;;;;;;;;;5099004;28;20406;-59
2022/06/11 16:09:01;;;;;;;;;;;;;;;;;;5117571;28;19915;-59
2022/06/11 16:11:39;;;;;;;;;;;;;;;;;;5099030;28;19998;-59
2022/06/11 16:14:26;;;;;;;;;;;;;;;;;;5117778;28;19914;-59
2022/06/11 16:16:51;;;;;;;;;;;;;;;;;;5116581;28;19916;-59
2022/06/11 16:22:19;;;;;;;;;;;;;;;;;;5098751;28;19908;-59
2022/06/11 16:25:38;;;;;;;;;;;;;;;;;;5117531;28;19908;-59
2022/06/11 16:27:32;;;;;;;;;;;;;;;;;;5095194;28;19969;-59
2022/06/11 16:30:15;;;;;;;;;;;;;;;;;;5098512;28;19908;-59
2022/06/11 16:32:43;;;;;;;;;;;;;;;;;;5116493;28;20361;-59
2022/06/11 16:35:27;;;;;;;;;;;;;;;;;;5117689;28;19922;-59
2022/06/11 16:37:56;;;;;;;;;;;;;;;;;;5117525;28;19907;-59
2022/06/11 16:40:26;;;;;;;;;;;;;;;;;;5117180;28;19908;-59
2022/06/11 16:42:57;;;;;;;;;;;;;;;;;;5098653;28;19908;-59
2022/06/11 16:45:35;;;;;;;;;;;;;;;;;;5116678;28;19960;-59
2022/06/11 16:48:01;;;;;;;;;;;;;;;;;;5098056;28;20357;-59
2022/06/11 16:56:10;;;;;;;;;;;;;;;;;;5117097;28;20025;-59
2022/06/11 16:58:36;;;;;;;;;;;;;;;;;;5116059;28;19911;-59
2022/06/11 17:01:14;;;;;;;;;;;;;;;;;;5115718;28;19908;-59
2022/06/11 17:03:50;;;;;;;;;;;;;;;;;;5098468;28;19930;-59
2022/06/11 17:06:34;;;;;;;;;;;;;;;;;;5115461;28;19908;-60
2022/06/11 17:11:55;;;;;;;;;;;;;;;;;;5116773;28;20356;-59
2022/06/11 17:14:24;;;;;;;;;;;;;;;;;;5116869;28;20257;-59
2022/06/11 17:16:59;;;;;;;;;;;;;;;;;;5116827;28;19907;-59
2022/06/11 17:22:13;;;;;;;;;;;;;;;;;;5116786;28;19915;-59
2022/06/11 17:30:17;;;;;;;;;;;;;;;;;;5112129;28;19965;-59
2022/06/11 17:32:53;;;;;;;;;;;;;;;;;;;;;
2022/06/11 17:38:20;;;;;;;;;;;;;;;;;;5080010;28;19908;-59
2022/06/11 17:40:52;;;;;;;;;;;;;;;;;;5116561;28;19919;-59
2022/06/11 17:43:18;;;;;;;;;;;;;;;;;;5120446;28;19908;-59
2022/06/11 17:45:50;;;;;;;;;;;;;;;;;;5120016;28;19999;-59
2022/06/11 17:51:11;;;;;;;;;;;;;;;;;;5037024;28;19909;-59
2022/06/11 17:53:55;;;;;;;;;;;;;;;;;;5101066;28;19908;-59
2022/06/11 17:56:30;;;;;;;;;;;;;;;;;;5120131;28;19929;-59
2022/06/11 17:58:59;;;;;;;;;;;;;;;;;;5120993;28;19918;-59
2022/06/11 18:01:37;;;;;;;;;;;;;;;;;;5109358;28;19965;-59
2022/06/11 18:04:09;;;;;;;;;;;;;;;;;;5120041;28;19908;-59
2022/06/11 18:06:36;;;;;;;;;;;;;;;;;;5120820;28;20057;-60
2022/06/11 18:09:05;;;;;;;;;;;;;;;;;;5120280;28;19931;-60
2022/06/11 18:14:43;;;;;;;;;;;;;;;;;;5119301;28;19908;-59
2022/06/11 18:17:08;;;;;;;;;;;;;;;;;;5119098;28;19908;-59
2022/06/11 18:19:43;;;;;;;;;;;;;;;;;;5097866;28;19914;-59
2022/06/11 18:27:39;;;;;;;;;;;;;;;;;;5120651;28;19927;-59
2022/06/11 18:35:56;;;;;;;;;;;;;;;;;;5094865;28;20362;-59
2022/06/11 18:38:25;;;;;;;;;;;;;;;;;;5100224;28;20311;-59
2022/06/11 18:40:58;;;;;;;;;;;;;;;;;;5100623;28;19904;-59
2022/06/11 18:43:32;;;;;;;;;;;;;;;;;;5075990;28;20368;-59
2022/06/11 18:46:03;;;;;;;;;;;;;;;;;;5075629;28;19912;-59
2022/06/11 18:48:32;;;;;;;;;;;;;;;;;;5050859;28;19916;-59
2022/06/11 18:53:44;;;;;;;;;;;;;;;;;;5051238;28;20334;-59
2022/06/11 18:56:16;;;;;;;;;;;;;;;;;;5034362;28;20346;-59
2022/06/11 18:58:47;;;;;;;;;;;;;;;;;;5034846;28;19917;-59
2022/06/11 19:01:33;;;;;;;;;;;;;;;;;;;;;
2022/06/11 19:04:05;;;;;;;;;;;;;;;;;;5051849;28;19931;-59
2022/06/11 19:06:32;;;;;;;;;;;;;;;;;;5052239;28;19913;-59
2022/06/11 19:11:51;;;;;;;;;;;;;;;;;;5011331;28;20356;-59
2022/06/11 19:14:26;;;;;;;;;;;;;;;;;;5049169;28;19988;-59
2022/06/11 19:16:54;;;;;;;;;;;;;;;;;;5034753;28;19909;-59
2022/06/11 19:19:26;;;;;;;;;;;;;;;;;;5052190;28;20408;-59
2022/06/11 19:21:58;;;;;;;;;;;;;;;;;;5052071;28;19917;-59
2022/06/11 19:27:31;;;;;;;;;;;;;;;;;;5041086;28;19913;-59
2022/06/11 19:33:08;;;;;;;;;;;;;;;;;;5087838;28;20419;-59
2022/06/11 19:35:40;;;;;;;;;;;;;;;;;;5098572;28;20238;-59
2022/06/11 19:38:12;;;;;;;;;;;;;;;;;;5098125;28;20387;-59
2022/06/11 19:40:48;;;;;;;;;;;;;;;;;;5097676;28;20008;-59
2022/06/11 19:46:03;;;;;;;;;;;;;;;;;;5079558;28;19912;-59
2022/06/11 19:48:33;;;;;;;;;;;;;;;;;;5097635;28;19912;-59
2022/06/11 19:53:59;;;;;;;;;;;;;;;;;;;;;
2022/06/11 19:56:47;;;;;;;;;;;;;;;;;;5097314;28;20347;-59
2022/06/11 20:02:01;;;;;;;;;;;;;;;;;;5045760;28;19912;-58
2022/06/11 20:12:56;;;;;;;;;;;;;;;;;;5097907;28;20273;-58
2022/06/11 20:15:25;;;;;;;;;;;;;;;;;;5098009;28;19916;-58
2022/06/11 20:20:43;;;;;;;;;;;;;;;;;;5045398;28;19953;-58
2022/06/11 20:26:21;;;;;;;;;;;;;;;;;;5016533;28;19910;-58
2022/06/11 20:29:08;;;;;;;;;;;;;;;;;;5097965;28;19963;-58
2022/06/11 20:31:49;;;;;;;;;;;;;;;;;;5095816;28;19947;-58
2022/06/11 20:34:25;;;;;;;;;;;;;;;;;;5095865;28;19920;-58
2022/06/11 20:37:00;;;;;;;;;;;;;;;;;;5096784;28;19908;-58
2022/06/11 20:39:35;;;;;;;;;;;;;;;;;;5096293;28;20334;-58
2022/06/11 20:42:08;;;;;;;;;;;;;;;;;;5096094;28;19912;-58
2022/06/11 20:44:48;;;;;;;;;;;;;;;;;;5078582;28;19908;-58
2022/06/11 20:47:14;;;;;;;;;;;;;;;;;;5077841;28;20369;-58
2022/06/11 20:55:21;;;;;;;;;;;;;;;;;;5088704;28;19908;-58
2022/06/11 20:57:47;;;;;;;;;;;;;;;;;;5077429;28;19915;-58
2022/06/11 21:00:27;;;;;;;;;;;;;;;;;;5078346;28;19959;-58
2022/06/11 21:05:50;;;;;;;;;;;;;;;;;;5103354;28;19908;-58
2022/06/11 21:11:02;;;;;;;;;;;;;;;;;;5103663;28;20266;-58
2022/06/11 21:13:32;;;;;;;;;;;;;;;;;;5102627;28;19908;-58
2022/06/11 21:16:00;;;;;;;;;;;;;;;;;;5103514;28;19915;-58
2022/06/11 21:18:47;;;;;;;;;;;;;;;;;;5103517;28;19912;-58
2022/06/11 21:21:26;;;;;;;;;;;;;;;;;;5103664;28;19923;-58
2022/06/11 21:26:37;;;;;;;;;;;;;;;;;;5104645;28;19962;-58
2022/06/11 21:29:06;;;;;;;;;;;;;;;;;;5103486;28;19912;-58
2022/06/11 21:37:29;;;;;;;;;;;;;;;;;;5099698;28;19994;-58
2022/06/11 21:39:56;;;;;;;;;;;;;;;;;;5104321;28;19994;-58
2022/06/11 21:42:41;;;;;;;;;;;;;;;;;;;;;
2022/06/11 21:45:08;;;;;;;;;;;;;;;;;;5099125;28;20011;-58
2022/06/11 21:47:39;;;;;;;;;;;;;;;;;;5086438;28;20453;-58
2022/06/11 21:50:11;;;;;;;;;;;;;;;;;;5085465;28;19913;-58
2022/06/11 21:52:44;;;;;;;;;;;;;;;;;;5086069;28;19908;-58
2022/06/11 21:55:17;;;;;;;;;;;;;;;;;;5104485;28;19908;-58
2022/06/11 21:57:45;;;;;;;;;;;;;;;;;;5086648;28;19908;-58
2022/06/11 22:00:27;;;;;;;;;;;;;;;;;;5104481;28;19993;-57
2022/06/11 22:03:05;;;;;;;;;;;;;;;;;;5104474;28;19908;-58
2022/06/11 22:05:36;;;;;;;;;;;;;;;;;;5104499;28;19908;-58
2022/06/11 22:08:10;;;;;;;;;;;;;;;;;;5061044;28;19963;-58
2022/06/11 22:10:36;;;;;;;;;;;;;;;;;;5061085;28;19917;-58
2022/06/11 22:13:11;;;;;;;;;;;;;;;;;;5061863;28;19908;-58
2022/06/11 22:18:59;;;;;;;;;;;;;;;;;;4962599;29;19910;-58
2022/06/11 22:21:40;;;;;;;;;;;;;;;;;;;;;
2022/06/11 22:27:19;;;;;;;;;;;;;;;;;;4912301;29;20366;-59
2022/06/11 22:29:46;;;;;;;;;;;;;;;;;;4947117;29;19915;-58
2022/06/11 22:32:35;;;;;;;;;;;;;;;;;;4964009;29;20313;-58
2022/06/11 22:35:00;;;;;;;;;;;;;;;;;;4961336;28;20348;-57
2022/06/11 22:37:44;;;;;;;;;;;;;;;;;;4963781;29;19918;-58
2022/06/11 22:40:24;;;;;;;;;;;;;;;;;;5002100;28;19937;-57
2022/06/11 22:48:35;;;;;;;;;;;;;;;;;;5001718;28;19920;-58
2022/06/11 22:51:05;;;;;;;;;;;;;;;;;;5002165;28;19921;-57
2022/06/11 22:53:41;;;;;;;;;;;;;;;;;;5091434;28;19908;-58
2022/06/11 22:56:09;;;;;;;;;;;;;;;;;;5084559;28;20269;-57
2022/06/11 23:04:27;;;;;;;;;;;;;;;;;;;;;